Time;durP1;ratioP1;P1;durP2;ratioP2;P2;SDS_P1;SDS_P2;PMS_P1;PMS_P2;Temp;Humidity;BMP_temperature;BMP_pressure;BME280_temperature;BME280_humidity;BME280_pressure;Samples;Min_cycle;Max_cycle;Signal;HPM_P1;HPM_P2
2023/10/12 00:06:25;;;;;;;15.70;6.50;;;;;;;20.61;78.77;99437.23;668048;1265;139342;-81
2023/10/12 00:21:35;;;;;;;13.00;6.50;;;;;;;20.61;78.45;99428.19;668239;1263;139152;-80
2023/10/12 00:36:40;;;;;;;14.00;6.70;;;;;;;20.59;78.24;99422.09;671038;1262;139091;-80
2023/10/12 00:51:53;;;;;;;15.70;6.60;;;;;;;20.49;77.79;99400.36;673639;1278;139131;-79
2023/10/12 01:07:00;;;;;;;14.70;6.60;;;;;;;20.50;77.25;99381.00;675089;1262;139169;-81
2023/10/12 01:22:11;;;;;;;15.40;6.80;;;;;;;20.46;77.31;99373.59;670496;1265;140178;-82
2023/10/12 01:37:22;;;;;;;13.40;6.00;;;;;;;20.55;76.59;99375.66;678142;1265;139320;-83
2023/10/12 01:52:26;;;;;;;46.90;17.00;;;;;;;20.57;76.09;99369.94;673872;1265;140878;-82
2023/10/12 02:07:30;;;;;;;22.20;8.00;;;;;;;20.72;75.26;99359.95;672423;1264;141446;-84
2023/10/12 02:22:35;;;;;;;16.30;6.20;;;;;;;20.68;75.99;99371.50;672564;1265;139178;-82
2023/10/12 02:37:39;;;;;;;11.60;5.60;;;;;;;20.67;78.67;99381.80;672302;1265;139304;-82
2023/10/12 02:52:43;;;;;;;9.60;5.30;;;;;;;20.39;83.09;99385.71;672498;1262;139347;-83
2023/10/12 03:07:49;;;;;;;14.10;6.80;;;;;;;20.28;84.60;99393.94;677210;1263;139062;-82
2023/10/12 03:22:53;;;;;;;14.70;6.20;;;;;;;20.31;84.30;99384.16;672979;1262;140565;-82
2023/10/12 03:38:09;;;;;;;15.40;6.20;;;;;;;20.07;85.50;99370.23;673080;1266;140615;-81
2023/10/12 03:53:20;;;;;;;10.50;5.30;;;;;;;19.94;85.86;99367.94;672977;1264;139149;-82
2023/10/12 04:54:04;;;;;;;3.40;1.90;;;;;;;18.40;94.27;99390.52;672816;1264;139786;-82
2023/10/12 05:09:11;;;;;;;4.20;1.90;;;;;;;18.01;98.01;99402.10;669541;1262;138895;-81
2023/10/12 05:24:14;;;;;;;8.30;4.30;;;;;;;17.67;100.00;99421.83;668334;1263;138841;-79
2023/10/12 05:39:18;;;;;;;2.80;1.50;;;;;;;17.48;100.00;99447.98;667514;1267;139717;-79
2023/10/12 05:54:23;;;;;;;5.50;1.90;;;;;;;17.35;100.00;99451.02;667895;1265;139896;-79
2023/10/12 06:09:35;;;;;;;4.20;2.50;;;;;;;17.33;100.00;99429.44;668307;1259;139786;-79
2023/10/12 06:24:41;;;;;;;3.40;1.80;;;;;;;17.37;100.00;99486.46;667767;1263;139776;-79
2023/10/12 06:55:09;;;;;;;8.20;3.80;;;;;;;17.36;100.00;99517.89;669244;1279;139600;-80
2023/10/12 07:25:22;;;;;;;23.80;8.50;;;;;;;17.68;100.00;99548.14;667819;1262;140213;-79
2023/10/12 07:40:34;;;;;;;4.20;2.70;;;;;;;17.61;100.00;99585.38;668251;1269;139911;-80
2023/10/12 07:55:41;;;;;;;3.10;2.10;;;;;;;17.64;100.00;99607.42;669684;1264;140114;-80
2023/10/12 08:25:57;;;;;;;17.00;9.50;;;;;;;17.10;100.00;99706.52;673167;1261;185755;-81
2023/10/12 08:56:35;;;;;;;5.40;2.30;;;;;;;15.97;99.72;99775.59;680428;1273;140137;-78
2023/10/12 09:11:38;;;;;;;5.20;2.20;;;;;;;15.89;100.00;99783.05;669683;1264;138999;-78
2023/10/12 09:26:49;;;;;;;373.80;118.00;;;;;;;15.97;99.89;99794.69;668576;1264;140353;-79
2023/10/12 09:41:59;;;;;;;34.00;12.60;;;;;;;15.98;99.95;99797.68;670647;1260;139742;-80
2023/10/12 09:57:16;;;;;;;56.40;17.60;;;;;;;16.26;99.45;99810.98;669374;1264;140698;-79
2023/10/12 10:12:23;;;;;;;42.10;14.10;;;;;;;16.46;97.14;99822.16;671929;1266;140036;-79
2023/10/12 10:27:34;;;;;;;45.70;15.70;;;;;;;16.43;94.90;99835.95;676532;1265;140426;-79
2023/10/12 10:42:44;;;;;;;18.60;9.10;;;;;;;16.44;92.31;99819.44;668912;1267;140304;-79
2023/10/12 10:57:50;;;;;;;14.60;5.30;;;;;;;16.64;88.79;99825.02;669009;1264;140065;-79
2023/10/12 11:12:54;;;;;;;22.10;7.80;;;;;;;16.80;84.77;99836.05;671356;1267;139517;-81
2023/10/12 11:27:58;;;;;;;17.20;5.60;;;;;;;17.14;82.83;99839.06;675383;1261;140576;-81
2023/10/12 11:43:04;;;;;;;57.10;33.70;;;;;;;17.49;79.54;99835.09;672501;1264;140185;-82
2023/10/12 11:58:08;;;;;;;13.40;5.90;;;;;;;17.93;78.64;99848.08;671342;1267;140000;-81
2023/10/12 12:13:15;;;;;;;13.70;4.10;;;;;;;18.20;77.61;99860.02;673069;1262;140518;-83
2023/10/12 12:28:21;;;;;;;16.70;4.70;;;;;;;18.70;75.83;99857.34;673193;1263;139783;-81
2023/10/12 12:43:25;;;;;;;7.50;3.00;;;;;;;18.32;73.34;99870.26;679815;1264;139370;-81
2023/10/12 12:58:28;;;;;;;12.90;4.20;;;;;;;18.04;73.46;99875.35;672924;1263;140033;-79
2023/10/12 13:13:35;;;;;;;11.90;3.00;;;;;;;18.23;73.31;99878.70;673735;1262;140510;-79
2023/10/12 13:28:40;;;;;;;11.50;3.60;;;;;;;18.02;71.70;99879.08;671248;1264;139415;-79
2023/10/12 13:43:48;;;;;;;17.60;3.30;;;;;;;18.10;71.87;99882.80;670559;1264;139340;-79
2023/10/12 13:58:58;;;;;;;13.90;3.90;;;;;;;18.71;71.62;99888.42;668725;1264;139025;-79
2023/10/12 14:14:02;;;;;;;12.80;3.10;;;;;;;18.15;70.58;99901.74;670662;1263;140078;-78
2023/10/12 14:29:05;;;;;;;7.50;2.80;;;;;;;17.83;71.63;99917.92;668426;1262;140363;-79
2023/10/12 14:44:09;;;;;;;10.60;3.60;;;;;;;17.96;71.44;99923.34;668914;1265;141003;-81
2023/10/12 14:59:13;;;;;;;20.00;8.20;;;;;;;17.56;72.07;99944.52;679093;1260;139223;-81
2023/10/12 15:14:19;;;;;;;20.60;7.00;;;;;;;17.05;73.62;99946.18;668930;1264;139828;-78
2023/10/12 15:29:23;;;;;;;28.10;10.10;;;;;;;16.80;74.61;99950.47;669156;1265;139876;-81
2023/10/12 15:44:26;;;;;;;16.70;6.90;;;;;;;16.31;75.84;99974.58;676382;1263;139933;-80
2023/10/12 15:59:33;;;;;;;16.40;5.90;;;;;;;15.79;77.99;99988.08;669114;1265;139232;-81
2023/10/12 16:14:36;;;;;;;15.50;5.90;;;;;;;15.55;78.62;100000.61;669516;1266;139163;-81
2023/10/12 16:29:40;;;;;;;359.70;109.00;;;;;;;15.29;79.69;100018.66;671812;1265;140036;-81
2023/10/12 16:45:03;;;;;;;32.70;13.60;;;;;;;14.94;80.97;100028.73;671369;1265;139931;-81
2023/10/12 17:00:08;;;;;;;58.90;22.30;;;;;;;14.49;81.90;100038.16;669096;1264;140999;-81
2023/10/12 17:15:11;;;;;;;51.40;19.80;;;;;;;14.18;83.79;100048.17;669835;1265;139987;-81
2023/10/12 17:30:15;;;;;;;31.10;12.60;;;;;;;13.98;83.90;100058.83;669943;1265;139921;-81
2023/10/12 17:45:20;;;;;;;42.90;22.50;;;;;;;13.77;83.44;100071.62;672807;1265;139704;-81
2023/10/12 18:00:27;;;;;;;35.80;12.00;;;;;;;13.73;82.22;100091.02;676713;1273;139722;-80
2023/10/12 18:15:32;;;;;;;28.40;11.30;;;;;;;13.95;82.19;100099.12;673003;1264;140038;-82
2023/10/12 18:30:38;;;;;;;23.90;9.20;;;;;;;13.89;82.51;100113.51;673620;1276;139391;-81
2023/10/12 18:45:54;;;;;;;12.50;5.20;;;;;;;13.86;83.01;100124.30;671551;1265;142060;-81
2023/10/12 19:00:59;;;;;;;23.20;7.80;;;;;;;13.61;83.39;100146.77;679250;1264;138677;-81
2023/10/12 19:16:14;;;;;;;22.30;8.80;;;;;;;13.50;83.80;100147.37;673313;1262;139402;-82
2023/10/12 19:31:18;;;;;;;20.40;8.50;;;;;;;13.31;84.27;100160.11;671195;1260;140766;-82
2023/10/12 19:46:22;;;;;;;13.70;5.90;;;;;;;12.87;86.64;100164.31;670267;1262;139343;-82
2023/10/12 20:01:26;;;;;;;14.90;6.20;;;;;;;12.70;88.04;100188.80;673469;1258;138964;-81
2023/10/12 20:16:29;;;;;;;14.70;6.60;;;;;;;12.62;88.79;100198.30;672729;1263;139752;-82
2023/10/12 20:31:33;;;;;;;24.60;5.90;;;;;;;12.60;89.32;100203.64;673264;1266;152304;-82
2023/10/12 20:46:39;;;;;;;14.90;5.90;;;;;;;12.49;90.27;100194.17;674217;1262;138850;-81
2023/10/12 21:01:46;;;;;;;16.50;6.00;;;;;;;12.56;90.26;100217.73;673259;1262;141123;-81
2023/10/12 21:16:52;;;;;;;14.80;6.50;;;;;;;12.47;90.61;100216.86;670945;1262;139305;-81
2023/10/12 21:32:03;;;;;;;18.50;6.50;;;;;;;12.42;91.40;100227.50;671374;1260;138726;-81
2023/10/12 21:47:09;;;;;;;57.30;31.80;;;;;;;12.29;91.37;100232.05;675147;1260;139806;-81
2023/10/12 22:02:12;;;;;;;23.00;5.70;;;;;;;12.08;91.41;100230.67;673741;1264;139552;-81
2023/10/12 22:17:25;;;;;;;47.40;18.20;;;;;;;12.05;90.52;100238.59;673865;1262;141679;-81
2023/10/12 22:32:29;;;;;;;41.90;19.10;;;;;;;11.69;90.40;100251.73;673356;1264;140800;-82
2023/10/12 22:47:33;;;;;;;46.10;20.20;;;;;;;11.18;90.56;100257.40;669136;1262;139260;-82
2023/10/12 23:02:36;;;;;;;31.80;11.60;;;;;;;10.98;89.58;100265.11;673162;1264;140153;-81
2023/10/12 23:17:55;;;;;;;34.00;9.90;;;;;;;10.67;90.23;100283.52;676565;1272;139254;-81
2023/10/12 23:32:59;;;;;;;18.90;8.50;;;;;;;10.54;90.07;100284.65;674227;1266;140065;-81
2023/10/12 23:48:09;;;;;;;18.10;6.80;;;;;;;10.47;91.62;100296.98;671999;1263;139413;-81
